Home > Products > Valid Products > TAF

000
FTUS43 KDTX 271720
TAFFNT
TAF
KFNT 271720Z 2718/2818 33013KT 6SM -SN SCT025 OVC045
      TEMPO 2718/2720 2SM -SN OVC025
     FM272300 34006KT P6SM BKN035
     FM281000 34008KT P6SM SCT030=



000
FTUS43 KDTX 271720
TAFDET
TAF
KDET 271720Z 2718/2818 33013KT 6SM -SN SCT030 OVC045
      TEMPO 2718/2720 2SM -SN BKN020
     FM272300 34007KT P6SM BKN035
     FM281000 24007KT P6SM SCT030=



000
FTUS43 KDTX 271720
TAFMBS
TAF
KMBS 271720Z 2718/2818 35009KT P6SM SCT040=



000
FTUS43 KDTX 271720
TAFDTW
TAF
KDTW 271720Z 2718/2824 33013KT 6SM -SN SCT030 OVC045
      TEMPO 2718/2720 2SM -SN BKN020
     FM272300 34007KT P6SM BKN035
     FM281000 24007KT P6SM SCT030=



000
FTUS43 KDTX 271553 AAB
TAFFNT
TAF AMD
KFNT 271553Z 2716/2812 33013KT 5SM -SN SCT025 OVC045
      TEMPO 2716/2720 2SM -SN OVC025
     FM272300 34006KT P6SM BKN035
     FM281000 34008KT P6SM SCT030=



000
FTUS43 KDTX 271424 AAA
TAFDET
TAF AMD
KDET 271424Z 2714/2812 33013G20KT 6SM -SN SCT030 OVC045
      TEMPO 2715/2719 3SM -SN BKN025
     FM271900 03010KT 6SM -SHSN OVC035
     FM280200 34006KT P6SM OVC025=



000
FTUS43 KDTX 271424 AAA
TAFDET
TAF AMD
KDET 271424Z 2714/2812 33013G20KT 6SM -SN SCT030 OVC045
      TEMPO 2715/2719 3SM -SN BKN025
     FM271900 03010KT 6SM -SHSN OVC035
     FM280200 34006KT P6SM OVC025=



000
FTUS43 KDTX 271423 AAA
TAFDTW
TAF AMD
KDTW 271423Z 2714/2818 33013G20KT 6SM -SN SCT030 OVC045
      TEMPO 2715/2719 3SM -SN BKN025
     FM271900 01010KT 6SM -SHSN OVC035
     FM280200 34006KT P6SM OVC025=



000
FTUS43 KDTX 271423 AAA
TAFDTW
TAF AMD
KDTW 271423Z 2714/2818 33013G20KT 6SM -SN SCT030 OVC045
      TEMPO 2715/2719 3SM -SN BKN025
     FM271900 01010KT 6SM -SHSN OVC035
     FM280200 34006KT P6SM OVC025=



000
FTUS43 KDTX 271338 AAA
TAFFNT
TAF AMD
KFNT 271338Z 2714/2812 33013G20KT 3SM -SN BKN025 OVC045
     FM271600 36013G20KT P6SM BKN050
     FM271900 03010KT P6SM OVC040
     FM280200 35006KT P6SM OVC025=



000
FTUS43 KDTX 271338 AAA
TAFFNT
TAF AMD
KFNT 271338Z 2714/2812 33013G20KT 3SM -SN BKN025 OVC045
     FM271600 36013G20KT P6SM BKN050
     FM271900 03010KT P6SM OVC040
     FM280200 35006KT P6SM OVC025=



000
FTUS43 KDTX 271132
TAFFNT
TAF
KFNT 271132Z 2712/2812 33013G20KT 6SM -SN SCT025 OVC045
     FM271500 36013G20KT P6SM BKN050
     FM271900 03010KT P6SM OVC040
     FM280200 35006KT P6SM OVC025=



000
FTUS43 KDTX 271132
TAFDET
TAF
KDET 271132Z 2712/2812 33013G20KT 6SM -SN BKN025 OVC045
     FM271500 36013G20KT P6SM BKN050
     FM271900 03010KT 6SM -SHSN OVC035
     FM280200 34006KT P6SM OVC025=



000
FTUS43 KDTX 271132
TAFMBS
TAF
KMBS 271132Z 2712/2812 33013G20KT 6SM -SN SCT025 OVC045
     FM271500 36013G20KT P6SM BKN050
     FM271800 03010KT P6SM OVC040
     FM280800 35006KT P6SM FEW050 SCT150=



000
FTUS43 KDTX 271132
TAFFNT
TAF
KFNT 271132Z 2712/2812 33013G20KT 6SM -SN SCT025 OVC045
     FM271500 36013G20KT P6SM BKN050
     FM271900 03010KT P6SM OVC040
     FM280200 35006KT P6SM OVC025=



000
FTUS43 KDTX 271132
TAFDET
TAF
KDET 271132Z 2712/2812 33013G20KT 6SM -SN BKN025 OVC045
     FM271500 36013G20KT P6SM BKN050
     FM271900 03010KT 6SM -SHSN OVC035
     FM280200 34006KT P6SM OVC025=



000
FTUS43 KDTX 271132
TAFMBS
TAF
KMBS 271132Z 2712/2812 33013G20KT 6SM -SN SCT025 OVC045
     FM271500 36013G20KT P6SM BKN050
     FM271800 03010KT P6SM OVC040
     FM280800 35006KT P6SM FEW050 SCT150=



000
FTUS43 KDTX 271132
TAFDTW
TAF
KDTW 271132Z 2712/2818 31013G20KT 6SM -SN BKN025 OVC045
     FM271500 34013G20KT P6SM BKN050
     FM271900 01010KT 6SM -SHSN OVC035
     FM280200 34006KT P6SM OVC025=



000
FTUS43 KDTX 271132
TAFDTW
TAF
KDTW 271132Z 2712/2818 31013G20KT 6SM -SN BKN025 OVC045
     FM271500 34013G20KT P6SM BKN050
     FM271900 01010KT 6SM -SHSN OVC035
     FM280200 34006KT P6SM OVC025=



000
FTUS43 KDTX 270901 AAA
TAFFNT
TAF AMD
KFNT 270901Z 2709/2806 31012KT P6SM OVC025
     FM271500 36011KT P6SM BKN035
     FM271900 03010KT P6SM OVC040
     FM280200 35006KT P6SM FEW050 SCT150=



000
FTUS43 KDTX 270901 AAA
TAFMBS
TAF AMD
KMBS 270901Z 2709/2806 31015KT P6SM OVC025
     FM271500 01011KT P6SM BKN035
     FM271900 03010KT P6SM OVC040
     FM280100 35006KT P6SM FEW050 SCT150=



000
FTUS43 KDTX 270901 AAA
TAFMBS
TAF AMD
KMBS 270901Z 2709/2806 31015KT P6SM OVC025
     FM271500 01011KT P6SM BKN035
     FM271900 03010KT P6SM OVC040
     FM280100 35006KT P6SM FEW050 SCT150=



000
FTUS43 KDTX 270900 AAA
TAFDTW
TAF AMD
KDTW 270900Z 2709/2812 31012KT P6SM OVC045
     FM271500 34011KT P6SM BKN050
     FM271900 01010KT P6SM OVC050
     FM280200 34006KT P6SM FEW050 SCT150=



000
FTUS43 KDTX 270529
TAFDET
TAF
KDET 270529Z 2706/2806 32010KT P6SM OVC045
     FM271500 35011KT P6SM BKN050
     FM271900 02010KT P6SM OVC050
     FM280200 35006KT P6SM FEW050 SCT150=



000
FTUS43 KDTX 270529
TAFMBS
TAF
KMBS 270529Z 2706/2806 34015KT P6SM OVC025
     FM271500 01011KT P6SM BKN035
     FM271900 03010KT P6SM OVC040
     FM280100 35006KT P6SM FEW050 SCT150=



000
FTUS43 KDTX 270529
TAFDTW
TAF
KDTW 270529Z 2706/2812 31012KT P6SM OVC045
     FM271500 34011KT P6SM BKN050
     FM271900 01010KT P6SM OVC050
     FM280200 34006KT P6SM FEW050 SCT150=



000
FTUS43 KDTX 270529
TAFFNT
TAF
KFNT 270529Z 2706/2806 34011KT P6SM SCT025 OVC035
      TEMPO 2706/2709 BKN025
     FM271500 36011KT P6SM BKN035
     FM271900 03010KT P6SM OVC040
     FM280200 35006KT P6SM FEW050 SCT150=



000
FTUS43 KDTX 270241 AAA
TAFDTW
TAF AMD
KDTW 270241Z 2703/2806 30010KT P6SM OVC045
     FM270800 32012KT P6SM SCT025 BKN045
     FM271500 34011KT P6SM BKN050
     FM271900 01010KT P6SM OVC050
     FM280200 34006KT P6SM SCT150=



000
FTUS43 KDTX 270241 AAA
TAFMBS
TAF AMD
KMBS 270241Z 2703/2724 34012KT P6SM SCT025 OVC035
     FM271500 01011KT P6SM BKN035
     FM271900 03010KT P6SM OVC040=



000
FTUS43 KDTX 270241 AAA
TAFDTW
TAF AMD
KDTW 270241Z 2703/2806 30010KT P6SM OVC045
     FM270800 32012KT P6SM SCT025 BKN045
     FM271500 34011KT P6SM BKN050
     FM271900 01010KT P6SM OVC050
     FM280200 34006KT P6SM SCT150=



000
FTUS43 KDTX 270241 AAA
TAFMBS
TAF AMD
KMBS 270241Z 2703/2724 34012KT P6SM SCT025 OVC035
     FM271500 01011KT P6SM BKN035
     FM271900 03010KT P6SM OVC040=



000
FTUS43 KDTX 262320
TAFMBS
TAF
KMBS 262320Z 2700/2724 30010KT P6SM SCT035 OVC045
     FM270600 34012KT P6SM SCT025 OVC035
     FM271500 01011KT P6SM BKN035
     FM271900 03010KT P6SM OVC040=



000
FTUS43 KDTX 262320
TAFFNT
TAF
KFNT 262320Z 2700/2724 30010KT P6SM SCT035 OVC045
     FM270700 34012KT P6SM SCT025 OVC035
     FM271500 01011KT P6SM BKN035
     FM271900 03010KT P6SM OVC040=



000
FTUS43 KDTX 262320
TAFDET
TAF
KDET 262320Z 2700/2724 31010KT P6SM BKN050
     FM270300 32010KT P6SM SCT050
     FM270900 33012KT P6SM SCT025 BKN045
     FM271500 35011KT P6SM BKN050
     FM271900 02010KT P6SM OVC050=



000
FTUS43 KDTX 262320
TAFMBS
TAF
KMBS 262320Z 2700/2724 30010KT P6SM SCT035 OVC045
     FM270600 34012KT P6SM SCT025 OVC035
     FM271500 01011KT P6SM BKN035
     FM271900 03010KT P6SM OVC040=



000
FTUS43 KDTX 262320
TAFDTW
TAF
KDTW 262320Z 2700/2806 29010KT P6SM BKN045
     FM270300 30010KT P6SM SCT045
     FM270900 32012KT P6SM SCT025 BKN045
     FM271500 34011KT P6SM BKN050
     FM271900 01010KT P6SM OVC050
     FM280200 34006KT P6SM SCT150=



000
FTUS43 KDTX 262320
TAFFNT
TAF
KFNT 262320Z 2700/2724 30010KT P6SM SCT035 OVC045
     FM270700 34012KT P6SM SCT025 OVC035
     FM271500 01011KT P6SM BKN035
     FM271900 03010KT P6SM OVC040=



000
FTUS43 KDTX 262320
TAFDTW
TAF
KDTW 262320Z 2700/2806 29010KT P6SM BKN045
     FM270300 30010KT P6SM SCT045
     FM270900 32012KT P6SM SCT025 BKN045
     FM271500 34011KT P6SM BKN050
     FM271900 01010KT P6SM OVC050
     FM280200 34006KT P6SM SCT150=



000
FTUS43 KDTX 262320
TAFDET
TAF
KDET 262320Z 2700/2724 31010KT P6SM BKN050
     FM270300 32010KT P6SM SCT050
     FM270900 33012KT P6SM SCT025 BKN045
     FM271500 35011KT P6SM BKN050
     FM271900 02010KT P6SM OVC050=



000
FTUS43 KDTX 262047 AAA
TAFDTW
TAF AMD
KDTW 262047Z 2621/2724 28010KT P6SM BKN045
     FM270300 30011KT P6SM SCT045
     FM270900 31012KT P6SM SCT025 BKN040
     FM271500 34012KT P6SM BKN050=



000
FTUS43 KDTX 261726
TAFDET
TAF
KDET 261726Z 2618/2718 29009KT P6SM SCT025 BKN040 BKN200
     FM270300 31011KT P6SM SCT040
     FM270900 32012KT P6SM SCT025 BKN040
     FM271500 35012KT P6SM BKN050=



000
FTUS43 KDTX 261726
TAFFNT
TAF
KFNT 261726Z 2618/2718 29010KT P6SM SCT025 BKN040 BKN200
     FM270200 31012KT P6SM BKN028
     FM271500 01010KT P6SM OVC035=



000
FTUS43 KDTX 261726
TAFMBS
TAF
KMBS 261726Z 2618/2718 29012KT P6SM BKN040
     FM270200 31014KT P6SM BKN028
     FM271500 01010KT P6SM OVC035=



000
FTUS43 KDTX 261726
TAFDTW
TAF
KDTW 261726Z 2618/2724 29009KT P6SM SCT025 BKN040 BKN200
     FM270300 31011KT P6SM SCT040
     FM270900 32012KT P6SM SCT025 BKN040
     FM271500 35012KT P6SM BKN050=



000
FTUS43 KDTX 261726
TAFFNT
TAF
KFNT 261726Z 2618/2718 29010KT P6SM SCT025 BKN040 BKN200
     FM270200 31012KT P6SM BKN028
     FM271500 01010KT P6SM OVC035=



000
FTUS43 KDTX 261726
TAFDTW
TAF
KDTW 261726Z 2618/2724 29009KT P6SM SCT025 BKN040 BKN200
     FM270300 31011KT P6SM SCT040
     FM270900 32012KT P6SM SCT025 BKN040
     FM271500 35012KT P6SM BKN050=



000
FTUS43 KDTX 261726
TAFMBS
TAF
KMBS 261726Z 2618/2718 29012KT P6SM BKN040
     FM270200 31014KT P6SM BKN028
     FM271500 01010KT P6SM OVC035=



000
FTUS43 KDTX 261726
TAFDET
TAF
KDET 261726Z 2618/2718 29009KT P6SM SCT025 BKN040 BKN200
     FM270300 31011KT P6SM SCT040
     FM270900 32012KT P6SM SCT025 BKN040
     FM271500 35012KT P6SM BKN050=



000
FTUS43 KDTX 261618 AAA
TAFMBS
TAF AMD
KMBS 261618Z 2616/2712 30012KT P6SM BKN040
     FM270200 31014KT P6SM BKN028=



000
FTUS43 KDTX 261618 AAB
TAFDET
TAF AMD
KDET 261618Z 2616/2712 30008KT P6SM BKN028 OVC120
     FM261800 29009KT P6SM BKN045 BKN200
     FM270300 31011KT P6SM SCT040
     FM270900 32012KT P6SM BKN040=



000
FTUS43 KDTX 261455 AAB
TAFDTW
TAF AMD
KDTW 261455Z 2615/2718 30005KT P6SM BKN035 OVC120
     FM261700 29009KT P6SM BKN045 BKN200
     FM270300 31011KT P6SM SCT040
     FM270900 32012KT P6SM BKN040
     FM271500 35012KT P6SM BKN050=



000
FTUS43 KDTX 261455 AAB
TAFDTW
TAF AMD
KDTW 261455Z 2615/2718 30005KT P6SM BKN035 OVC120
     FM261700 29009KT P6SM BKN045 BKN200
     FM270300 31011KT P6SM SCT040
     FM270900 32012KT P6SM BKN040
     FM271500 35012KT P6SM BKN050=



000
FTUS43 KDTX 261227 AAA
TAFDET
TAF AMD
KDET 261227Z 2612/2712 29004KT 4SM -RA BKN016 OVC040
      TEMPO 2612/2614 2SM RA BKN011 OVC040
     FM261500 30005KT P6SM BKN035 OVC120
     FM261700 29009KT P6SM BKN045 BKN200
     FM270300 31011KT P6SM SCT040
     FM270900 32012KT P6SM BKN040=



000
FTUS43 KDTX 261227 AAA
TAFDTW
TAF AMD
KDTW 261227Z 2612/2718 29004KT 4SM -RA BKN016 OVC040
      TEMPO 2612/2614 2SM RA BKN011 OVC040
     FM261500 30005KT P6SM BKN035 OVC120
     FM261700 29009KT P6SM BKN045 BKN200
     FM270300 31011KT P6SM SCT040
     FM270900 32012KT P6SM BKN040
     FM271500 35012KT P6SM BKN050=



000
FTUS43 KDTX 261227 AAA
TAFDTW
TAF AMD
KDTW 261227Z 2612/2718 29004KT 4SM -RA BKN016 OVC040
      TEMPO 2612/2614 2SM RA BKN011 OVC040
     FM261500 30005KT P6SM BKN035 OVC120
     FM261700 29009KT P6SM BKN045 BKN200
     FM270300 31011KT P6SM SCT040
     FM270900 32012KT P6SM BKN040
     FM271500 35012KT P6SM BKN050=



000
FTUS43 KDTX 261227 AAA
TAFDET
TAF AMD
KDET 261227Z 2612/2712 29004KT 4SM -RA BKN016 OVC040
      TEMPO 2612/2614 2SM RA BKN011 OVC040
     FM261500 30005KT P6SM BKN035 OVC120
     FM261700 29009KT P6SM BKN045 BKN200
     FM270300 31011KT P6SM SCT040
     FM270900 32012KT P6SM BKN040=



000
FTUS43 KDTX 261124
TAFDET
TAF
KDET 261124Z 2612/2712 29004KT 4SM -RA BKN016 OVC040
     FM261500 30005KT P6SM BKN035 OVC120
     FM261700 29009KT P6SM BKN045 BKN200
     FM270300 31011KT P6SM SCT040
     FM270900 32012KT P6SM BKN040=



000
FTUS43 KDTX 261124
TAFFNT
TAF
KFNT 261124Z 2612/2712 29006KT P6SM SCT035 OVC120
     FM261700 29010KT P6SM BKN040 BKN200
     FM270200 31012KT P6SM BKN030=



000
FTUS43 KDTX 261124
TAFMBS
TAF
KMBS 261124Z 2612/2712 26005KT P6SM BKN035
     FM261700 29012KT P6SM BKN045
     FM270200 31014KT P6SM BKN028=



000
FTUS43 KDTX 261124
TAFDTW
TAF
KDTW 261124Z 2612/2718 29004KT 4SM -RA BKN016 OVC040
     FM261500 30005KT P6SM BKN035 OVC120
     FM261700 29009KT P6SM BKN045 BKN200
     FM270300 31011KT P6SM SCT040
     FM270900 32012KT P6SM BKN040
     FM271500 35012KT P6SM BKN050=



000
FTUS43 KDTX 260857 AAB
TAFDET
TAF AMD
KDET 260857Z 2609/2706 32005KT P6SM SCT045 OVC100
     FM261000 29005KT 5SM -RA SCT018 BKN050 OVC080
     FM261200 31004KT 4SM -RA BKN012 OVC060
     FM261500 25010KT P6SM BKN035 OVC050
     FM261800 29011KT P6SM BKN060 OVC150
     FM270200 31010KT P6SM SCT150=



000
FTUS43 KDTX 260857 AAB
TAFDET
TAF AMD
KDET 260857Z 2609/2706 32005KT P6SM SCT045 OVC100
     FM261000 29005KT 5SM -RA SCT018 BKN050 OVC080
     FM261200 31004KT 4SM -RA BKN012 OVC060
     FM261500 25010KT P6SM BKN035 OVC050
     FM261800 29011KT P6SM BKN060 OVC150
     FM270200 31010KT P6SM SCT150=



000
FTUS43 KDTX 260856 AAB
TAFDTW
TAF AMD
KDTW 260856Z 2609/2712 32005KT P6SM SCT045 OVC100
     FM261000 29005KT 5SM -RA SCT018 BKN050 OVC080
     FM261200 31004KT 4SM -RA BKN012 OVC060
     FM261500 25010KT P6SM BKN035 OVC050
     FM261800 29011KT P6SM BKN060 OVC150
     FM270200 30010KT P6SM SCT150
     FM270800 32009KT P6SM BKN050=



000
FTUS43 KDTX 260856 AAB
TAFDTW
TAF AMD
KDTW 260856Z 2609/2712 32005KT P6SM SCT045 OVC100
     FM261000 29005KT 5SM -RA SCT018 BKN050 OVC080
     FM261200 31004KT 4SM -RA BKN012 OVC060
     FM261500 25010KT P6SM BKN035 OVC050
     FM261800 29011KT P6SM BKN060 OVC150
     FM270200 30010KT P6SM SCT150
     FM270800 32009KT P6SM BKN050=



000
FTUS43 KDTX 260806 AAA
TAFDET
TAF AMD
KDET 260806Z 2608/2706 32005KT P6SM SCT045 OVC100
     FM261100 29005KT 5SM -RASN BKN050 OVC080
     FM261300 31004KT 6SM -RA BKN028 OVC060
     FM261500 25010KT P6SM BKN035 OVC050
     FM261800 29011KT P6SM BKN060 OVC150
     FM270200 31010KT P6SM SCT150=



000
FTUS43 KDTX 260806 AAA
TAFDET
TAF AMD
KDET 260806Z 2608/2706 32005KT P6SM SCT045 OVC100
     FM261100 29005KT 5SM -RASN BKN050 OVC080
     FM261300 31004KT 6SM -RA BKN028 OVC060
     FM261500 25010KT P6SM BKN035 OVC050
     FM261800 29011KT P6SM BKN060 OVC150
     FM270200 31010KT P6SM SCT150=



000
FTUS43 KDTX 260804 AAA
TAFDTW
TAF AMD
KDTW 260804Z 2608/2712 32005KT P6SM SCT045 OVC100
     FM261100 29005KT 5SM -RASN BKN050 OVC080
     FM261300 31004KT 6SM -RA BKN028 OVC060
     FM261500 25010KT P6SM BKN035 OVC050
     FM261800 29011KT P6SM BKN060 OVC150
     FM270200 30010KT P6SM SCT150
     FM270800 32009KT P6SM BKN050=



000
FTUS43 KDTX 260804 AAA
TAFDTW
TAF AMD
KDTW 260804Z 2608/2712 32005KT P6SM SCT045 OVC100
     FM261100 29005KT 5SM -RASN BKN050 OVC080
     FM261300 31004KT 6SM -RA BKN028 OVC060
     FM261500 25010KT P6SM BKN035 OVC050
     FM261800 29011KT P6SM BKN060 OVC150
     FM270200 30010KT P6SM SCT150
     FM270800 32009KT P6SM BKN050=



000
FTUS43 KDTX 260525
TAFMBS
TAF
KMBS 260525Z 2606/2706 25009KT P6SM SCT025 OVC035
     FM261000 25007KT P6SM SCT035 OVC045
     FM261300 29009KT P6SM SCT045 OVC060
     FM261700 30011KT P6SM BKN060 OVC150
     FM270000 31010KT P6SM SCT150=



000
FTUS43 KDTX 260525
TAFDET
TAF
KDET 260525Z 2606/2706 28008KT P6SM OVC020
     FM261000 29006KT 4SM -RASN OVC014
     FM261400 25010KT P6SM BKN025 OVC050
     FM261800 29011KT P6SM BKN060 OVC150
     FM270200 31010KT P6SM SCT150=



000
FTUS43 KDTX 260525
TAFDTW
TAF
KDTW 260525Z 2606/2712 27008KT P6SM OVC018
     FM261000 28006KT 4SM -RASN OVC012
     FM261400 25010KT P6SM BKN025 OVC050
     FM261800 29011KT P6SM BKN060 OVC150
     FM270200 30010KT P6SM SCT150
     FM270800 32009KT P6SM BKN050=



000
FTUS43 KDTX 260525
TAFFNT
TAF
KFNT 260525Z 2606/2706 26009KT P6SM SCT025 OVC035
     FM261100 25007KT P6SM SCT035 OVC045
     FM261400 29009KT P6SM SCT045 OVC060
     FM261800 30011KT P6SM BKN060 OVC150
     FM270100 31010KT P6SM SCT150=



000
FTUS43 KDTX 260525
TAFDTW
TAF
KDTW 260525Z 2606/2712 27008KT P6SM OVC018
     FM261000 28006KT 4SM -RASN OVC012
     FM261400 25010KT P6SM BKN025 OVC050
     FM261800 29011KT P6SM BKN060 OVC150
     FM270200 30010KT P6SM SCT150
     FM270800 32009KT P6SM BKN050=



000
FTUS43 KDTX 260525
TAFFNT
TAF
KFNT 260525Z 2606/2706 26009KT P6SM SCT025 OVC035
     FM261100 25007KT P6SM SCT035 OVC045
     FM261400 29009KT P6SM SCT045 OVC060
     FM261800 30011KT P6SM BKN060 OVC150
     FM270100 31010KT P6SM SCT150=



000
FTUS43 KDTX 260525
TAFDET
TAF
KDET 260525Z 2606/2706 28008KT P6SM OVC020
     FM261000 29006KT 4SM -RASN OVC014
     FM261400 25010KT P6SM BKN025 OVC050
     FM261800 29011KT P6SM BKN060 OVC150
     FM270200 31010KT P6SM SCT150=



000
FTUS43 KDTX 260525
TAFMBS
TAF
KMBS 260525Z 2606/2706 25009KT P6SM SCT025 OVC035
     FM261000 25007KT P6SM SCT035 OVC045
     FM261300 29009KT P6SM SCT045 OVC060
     FM261700 30011KT P6SM BKN060 OVC150
     FM270000 31010KT P6SM SCT150=



000
FTUS43 KDTX 260232 AAA
TAFDTW
TAF AMD
KDTW 260232Z 2603/2706 22010KT P6SM BKN025 OVC200
     FM260400 24008KT P6SM OVC018
     FM261000 26006KT 5SM -RASN BKN012 OVC022
     FM261400 28010KT P6SM BKN025 OVC100
     FM261800 29011KT P6SM BKN060 OVC150
     FM270200 30010KT P6SM SCT150=



000
FTUS43 KDTX 260232 AAA
TAFDTW
TAF AMD
KDTW 260232Z 2603/2706 22010KT P6SM BKN025 OVC200
     FM260400 24008KT P6SM OVC018
     FM261000 26006KT 5SM -RASN BKN012 OVC022
     FM261400 28010KT P6SM BKN025 OVC100
     FM261800 29011KT P6SM BKN060 OVC150
     FM270200 30010KT P6SM SCT150=



000
FTUS43 KDTX 260202 AAA
TAFDET
TAF AMD
KDET 260202Z 2602/2624 25008KT P6SM SCT022 BKN200
     FM260500 27008KT P6SM BKN018 OVC028
     FM261000 30006KT 5SM -RASN BKN014 OVC024
     FM261400 28010KT P6SM BKN035 OVC100
     FM261900 29011KT P6SM BKN060 OVC150=



000
FTUS43 KDTX 260202 AAA
TAFDET
TAF AMD
KDET 260202Z 2602/2624 25008KT P6SM SCT022 BKN200
     FM260500 27008KT P6SM BKN018 OVC028
     FM261000 30006KT 5SM -RASN BKN014 OVC024
     FM261400 28010KT P6SM BKN035 OVC100
     FM261900 29011KT P6SM BKN060 OVC150=



000
FTUS43 KDTX 260158 AAA
TAFFNT
TAF AMD
KFNT 260158Z 2602/2624 27013KT P6SM OVC018
     FM261100 26007KT P6SM SCT018 BKN030
     FM261400 30011KT P6SM BKN045 OVC100
     FM261800 31014KT P6SM BKN060 BKN150=



000
FTUS43 KDTX 252320
TAFDET
TAF
KDET 252320Z 2600/2624 23012KT P6SM SCT200
     FM260300 24008KT P6SM FEW022 BKN200
     FM260700 26006KT P6SM SCT045 OVC090
     FM261100 30006KT 5SM -RASN BKN014 OVC035
     FM261500 28010KT P6SM BKN035 OVC100
     FM261900 29011KT P6SM BKN060 OVC150=



000
FTUS43 KDTX 252320
TAFFNT
TAF
KFNT 252320Z 2600/2624 25013KT P6SM SCT022 BKN200
     FM260200 24009KT P6SM BKN018 OVC200
     FM260700 25006KT P6SM BKN022 OVC100
     FM261100 26007KT P6SM BKN030
     FM261400 30011KT P6SM BKN045 OVC100
     FM261800 31014KT P6SM BKN060 BKN150=



000
FTUS43 KDTX 252320
TAFDTW
TAF
KDTW 252320Z 2600/2706 22012KT P6SM SCT200
     FM260300 23008KT P6SM FEW022 BKN200
     FM260700 26006KT P6SM SCT045 OVC090
     FM261100 30006KT 5SM -RASN BKN012 OVC028
     FM261500 28010KT P6SM BKN035 OVC100
     FM261900 29011KT P6SM BKN060 OVC150
     FM270200 30010KT P6SM SCT150=



000
FTUS43 KDTX 252320
TAFMBS
TAF
KMBS 252320Z 2600/2624 25015KT P6SM BKN018 BKN200
     FM260200 24010KT P6SM BKN012 OVC200
     FM260700 25007KT P6SM BKN022 OVC100
     FM261100 27007KT P6SM BKN030
     FM261400 30011KT P6SM BKN045 OVC100
     FM261800 31014KT P6SM BKN060 BKN150=



000
FTUS43 KDTX 252320
TAFDET
TAF
KDET 252320Z 2600/2624 23012KT P6SM SCT200
     FM260300 24008KT P6SM FEW022 BKN200
     FM260700 26006KT P6SM SCT045 OVC090
     FM261100 30006KT 5SM -RASN BKN014 OVC035
     FM261500 28010KT P6SM BKN035 OVC100
     FM261900 29011KT P6SM BKN060 OVC150=



000
FTUS43 KDTX 252320
TAFDTW
TAF
KDTW 252320Z 2600/2706 22012KT P6SM SCT200
     FM260300 23008KT P6SM FEW022 BKN200
     FM260700 26006KT P6SM SCT045 OVC090
     FM261100 30006KT 5SM -RASN BKN012 OVC028
     FM261500 28010KT P6SM BKN035 OVC100
     FM261900 29011KT P6SM BKN060 OVC150
     FM270200 30010KT P6SM SCT150=



000
FTUS43 KDTX 252320
TAFFNT
TAF
KFNT 252320Z 2600/2624 25013KT P6SM SCT022 BKN200
     FM260200 24009KT P6SM BKN018 OVC200
     FM260700 25006KT P6SM BKN022 OVC100
     FM261100 26007KT P6SM BKN030
     FM261400 30011KT P6SM BKN045 OVC100
     FM261800 31014KT P6SM BKN060 BKN150=



000
FTUS43 KDTX 252320
TAFMBS
TAF
KMBS 252320Z 2600/2624 25015KT P6SM BKN018 BKN200
     FM260200 24010KT P6SM BKN012 OVC200
     FM260700 25007KT P6SM BKN022 OVC100
     FM261100 27007KT P6SM BKN030
     FM261400 30011KT P6SM BKN045 OVC100
     FM261800 31014KT P6SM BKN060 BKN150=



000
FTUS43 KDTX 252138 AAB
TAFDET
TAF AMD
KDET 252138Z 2522/2618 26016G26KT P6SM FEW022
     FM260000 24010KT P6SM SCT018 BKN150
     FM260300 26006KT P6SM BKN022 OVC100
     FM261000 30006KT 6SM -RA BKN015 OVC040
     FM261600 29010KT P6SM BKN035 OVC120=



000
FTUS43 KDTX 252109 AAB
TAFDTW
TAF AMD
KDTW 252109Z 2521/2624 23015G25KT P6SM SCT022
      TEMPO 2521/2523 BKN022
     FM252300 24011KT P6SM SCT018 BKN150
     FM260300 26006KT P6SM BKN022 OVC100
     FM261000 30006KT 6SM -RA BKN015 OVC040
     FM261600 29010KT P6SM BKN035 OVC120=



000
FTUS43 KDTX 252109 AAB
TAFDTW
TAF AMD
KDTW 252109Z 2521/2624 23015G25KT P6SM SCT022
      TEMPO 2521/2523 BKN022
     FM252300 24011KT P6SM SCT018 BKN150
     FM260300 26006KT P6SM BKN022 OVC100
     FM261000 30006KT 6SM -RA BKN015 OVC040
     FM261600 29010KT P6SM BKN035 OVC120=



000
FTUS43 KDTX 251954 AAB
TAFFNT
TAF AMD
KFNT 251954Z 2520/2618 24016G26KT P6SM SCT018
     FM260000 24010KT P6SM SCT018 BKN150
     FM260300 26006KT P6SM BKN022 OVC100
     FM261200 29010KT P6SM BKN025 OVC120=



000
FTUS43 KDTX 251954 AAB
TAFFNT
TAF AMD
KFNT 251954Z 2520/2618 24016G26KT P6SM SCT018
     FM260000 24010KT P6SM SCT018 BKN150
     FM260300 26006KT P6SM BKN022 OVC100
     FM261200 29010KT P6SM BKN025 OVC120=



000
FTUS43 KDTX 251902 AAA
TAFDTW
TAF AMD
KDTW 251902Z 2519/2624 24016G26KT P6SM BKN018
     FM252300 24010KT P6SM SCT018 BKN150
     FM260300 26006KT P6SM BKN022 OVC100
     FM261000 30006KT 6SM -RA BKN015 OVC040
     FM261600 29010KT P6SM BKN035 OVC120=



000
FTUS43 KDTX 251902 AAA
TAFMBS
TAF AMD
KMBS 251902Z 2519/2618 26016G26KT P6SM BKN018 OVC200
     FM260000 24011KT P6SM SCT025 BKN150
     FM260600 28005KT P6SM BKN022 OVC100
     FM261200 29010KT P6SM BKN025 OVC120=



000
FTUS43 KDTX 251901 AAA
TAFFNT
TAF AMD
KFNT 251901Z 2519/2618 24016G26KT P6SM BKN018
     FM252300 24010KT P6SM SCT018 BKN150
     FM260300 26006KT P6SM BKN022 OVC100
     FM261200 29010KT P6SM BKN025 OVC120=



000
FTUS43 KDTX 251901 AAA
TAFFNT
TAF AMD
KFNT 251901Z 2519/2618 24016G26KT P6SM BKN018
     FM252300 24010KT P6SM SCT018 BKN150
     FM260300 26006KT P6SM BKN022 OVC100
     FM261200 29010KT P6SM BKN025 OVC120=



000
FTUS43 KDTX 251900 AAA
TAFDET
TAF AMD
KDET 251900Z 2519/2618 26016G26KT P6SM BKN018
     FM252300 24010KT P6SM SCT018 BKN150
     FM260300 26006KT P6SM BKN022 OVC100
     FM261000 30006KT 6SM -RA BKN015 OVC040
     FM261600 29010KT P6SM BKN035 OVC120=



000
FTUS43 KDTX 251900 AAA
TAFDET
TAF AMD
KDET 251900Z 2519/2618 26016G26KT P6SM BKN018
     FM252300 24010KT P6SM SCT018 BKN150
     FM260300 26006KT P6SM BKN022 OVC100
     FM261000 30006KT 6SM -RA BKN015 OVC040
     FM261600 29010KT P6SM BKN035 OVC120=



000
FTUS43 KDTX 251723
TAFDTW
TAF
KDTW 251723Z 2518/2624 22015G23KT 4SM BR OVC007
     FM252100 24016G26KT P6SM BKN018
     FM252300 24010KT P6SM SCT018 BKN150
     FM260300 26006KT P6SM BKN022 OVC100
     FM261000 30006KT 6SM -RA BKN015 OVC040
     FM261600 29010KT P6SM BKN035 OVC120=



000
FTUS43 KDTX 251723
TAFDET
TAF
KDET 251723Z 2518/2618 22015G23KT 4SM BR OVC007
     FM252100 24016G26KT P6SM BKN018
     FM252300 24010KT P6SM SCT018 BKN150
     FM260300 26006KT P6SM BKN022 OVC100
     FM261000 30006KT 6SM -RA BKN015 OVC040
     FM261600 29010KT P6SM BKN035 OVC120=



000
FTUS43 KDTX 251723
TAFFNT
TAF
KFNT 251723Z 2518/2618 22015G23KT 4SM BR OVC007
     FM252100 24016G26KT P6SM BKN018
     FM252300 24010KT P6SM SCT018 BKN150
     FM260300 26006KT P6SM BKN022 OVC100
     FM261200 29010KT P6SM BKN025 OVC120=



000
FTUS43 KDTX 251723
TAFMBS
TAF
KMBS 251723Z 2518/2618 22015G23KT 4SM BR OVC007
     FM252100 24016G26KT P6SM BKN025 OVC200
     FM260000 24011KT P6SM SCT025 BKN150
     FM260600 28005KT P6SM BKN022 OVC100
     FM261200 29010KT P6SM BKN025 OVC120=



000
FTUS43 KDTX 251723
TAFFNT
TAF
KFNT 251723Z 2518/2618 22015G23KT 4SM BR OVC007
     FM252100 24016G26KT P6SM BKN018
     FM252300 24010KT P6SM SCT018 BKN150
     FM260300 26006KT P6SM BKN022 OVC100
     FM261200 29010KT P6SM BKN025 OVC120=



000
FTUS43 KDTX 251723
TAFMBS
TAF
KMBS 251723Z 2518/2618 22015G23KT 4SM BR OVC007
     FM252100 24016G26KT P6SM BKN025 OVC200
     FM260000 24011KT P6SM SCT025 BKN150
     FM260600 28005KT P6SM BKN022 OVC100
     FM261200 29010KT P6SM BKN025 OVC120=



000
FTUS43 KDTX 251723
TAFDTW
TAF
KDTW 251723Z 2518/2624 22015G23KT 4SM BR OVC007
     FM252100 24016G26KT P6SM BKN018
     FM252300 24010KT P6SM SCT018 BKN150
     FM260300 26006KT P6SM BKN022 OVC100
     FM261000 30006KT 6SM -RA BKN015 OVC040
     FM261600 29010KT P6SM BKN035 OVC120=



000
FTUS43 KDTX 251723
TAFDET
TAF
KDET 251723Z 2518/2618 22015G23KT 4SM BR OVC007
     FM252100 24016G26KT P6SM BKN018
     FM252300 24010KT P6SM SCT018 BKN150
     FM260300 26006KT P6SM BKN022 OVC100
     FM261000 30006KT 6SM -RA BKN015 OVC040
     FM261600 29010KT P6SM BKN035 OVC120=



000
FTUS43 KDTX 251456 AAA
TAFMBS
TAF AMD
KMBS 251456Z 2515/2612 20010KT 3SM -RA BR BKN006 OVC012
     FM251700 22015G23KT 4SM BR BKN006 OVC012
     FM252000 24016G26KT P6SM BKN030 OVC200
     FM260000 24011KT P6SM BKN025 BKN150
     FM260600 28005KT P6SM BKN022 OVC100=



000
FTUS43 KDTX 251455 AAA
TAFFNT
TAF AMD
KFNT 251455Z 2515/2612 15010KT 1SM -RA BR OVC004
     FM251700 22014G22KT 3SM BR OVC008
     FM252000 24016G26KT P6SM OVC022
     FM252200 23014G24KT P6SM SCT030 BKN200
     FM260000 24011KT P6SM BKN025 BKN150
     FM260600 28005KT P6SM BKN022 OVC100=



000
FTUS43 KDTX 251453 AAA
TAFDET
TAF AMD
KDET 251453Z 2515/2612 15010KT 1SM BR OVC004
     FM251700 22014G22KT 3SM BR OVC008
     FM252000 24016G26KT P6SM OVC024
     FM252200 23014G24KT P6SM SCT030 BKN200
     FM260000 24010KT P6SM SCT028 BKN150
     FM260300 26006KT P6SM BKN022 OVC100=



000
FTUS43 KDTX 251453 AAA
TAFDET
TAF AMD
KDET 251453Z 2515/2612 15010KT 1SM BR OVC004
     FM251700 22014G22KT 3SM BR OVC008
     FM252000 24016G26KT P6SM OVC024
     FM252200 23014G24KT P6SM SCT030 BKN200
     FM260000 24010KT P6SM SCT028 BKN150
     FM260300 26006KT P6SM BKN022 OVC100=



000
FTUS43 KDTX 251452 AAA
TAFDTW
TAF AMD
KDTW 251452Z 2515/2618 15010KT 1SM BR OVC004
     FM251700 22014G22KT 3SM BR OVC008
     FM252000 24016G26KT P6SM OVC024
     FM252200 23014G24KT P6SM SCT030 BKN200
     FM260000 24010KT P6SM SCT028 BKN150
     FM260300 26006KT P6SM BKN022 OVC100
     FM261200 30006KT 6SM -RA BKN015 OVC040=



000
FTUS43 KDTX 251125
TAFMBS
TAF
KMBS 251125Z 2512/2612 14014G20KT 5SM SHRA BKN026 OVC050
     FM251500 22015G22KT 5SM BR BKN009 OVC015
     FM251700 24018G28KT P6SM OVC022
     FM252000 24016G26KT P6SM BKN030 OVC200
     FM260000 24011KT P6SM BKN025 BKN150
     FM260600 28005KT P6SM BKN022 OVC100=



000
FTUS43 KDTX 251125
TAFDET
TAF
KDET 251125Z 2512/2612 13011G19KT 5SM -SHRA BKN012 OVC045
     FM251400 20014G22KT 6SM BR BKN008 OVC014
     FM251700 24016G26KT P6SM OVC024
     FM252000 23014G24KT P6SM SCT030 BKN200
     FM260000 24010KT P6SM SCT028 BKN150
     FM260300 26006KT P6SM BKN022 OVC100=



000
FTUS43 KDTX 251125
TAFDTW
TAF
KDTW 251125Z 2512/2618 13011G19KT 5SM -SHRA BKN012 OVC045
     FM251400 20014G22KT 5SM BR BKN008 OVC014
     FM251700 24016G26KT P6SM OVC024
     FM252000 23014G24KT P6SM SCT030 BKN200
     FM260000 24010KT P6SM SCT028 BKN150
     FM260300 26006KT P6SM BKN022 OVC100
     FM261200 30006KT 6SM -RA BKN015 OVC040=



000
FTUS43 KDTX 251125
TAFFNT
TAF
KFNT 251125Z 2512/2612 14014G20KT 5SM -SHRA BKN026 OVC040
     FM251400 21015G24KT 5SM BR BKN006 OVC012
     FM251700 24016G26KT P6SM OVC022
     FM252000 24014G24KT P6SM SCT030 BKN200
     FM260000 24011KT P6SM BKN025 BKN150
     FM260600 28005KT P6SM BKN022 OVC100=



000
FTUS43 KDTX 250823 AAA
TAFDTW
TAF AMD
KDTW 250823Z 2508/2612 09006KT P6SM BKN070 OVC150
     FM250900 11009KT P6SM -FZRA SCT030 OVC060
     FM251000 12012G18KT 5SM -RA BR SCT018 OVC035 WS015/16045KT
     FM251300 16016G22KT 4SM -RA BR BKN012 OVC022 WS015/16045KT
     FM251500 23017G24KT P6SM BKN012 OVC025
     FM252000 24018G26KT P6SM SCT070 BKN150
     FM260000 22010KT P6SM SCT150 BKN250=



000
FTUS43 KDTX 250823 AAA
TAFDTW
TAF AMD
KDTW 250823Z 2508/2612 09006KT P6SM BKN070 OVC150
     FM250900 11009KT P6SM -FZRA SCT030 OVC060
     FM251000 12012G18KT 5SM -RA BR SCT018 OVC035 WS015/16045KT
     FM251300 16016G22KT 4SM -RA BR BKN012 OVC022 WS015/16045KT
     FM251500 23017G24KT P6SM BKN012 OVC025
     FM252000 24018G26KT P6SM SCT070 BKN150
     FM260000 22010KT P6SM SCT150 BKN250=



000
FTUS43 KDTX 250531
TAFDET
TAF
KDET 250531Z 2506/2606 11007KT P6SM BKN070 OVC150
     FM250900 12009KT P6SM -FZRA SCT030 OVC060
     FM251000 13012G18KT 5SM -RA BR SCT018 OVC035 WS015/16045KT
     FM251300 16016G22KT 4SM -RA BR BKN012 OVC022 WS015/16045KT
     FM251500 23017G24KT P6SM BKN012 OVC025
     FM252000 24018G26KT P6SM SCT070 BKN150
     FM260000 22010KT P6SM SCT150 BKN250=



000
FTUS43 KDTX 250531
TAFMBS
TAF
KMBS 250531Z 2506/2606 09006KT P6SM SCT250
     FM250900 12010KT P6SM BKN070 OVC150
     FM251000 12012KT P6SM -FZRA SCT030 OVC060
     FM251200 12014G20KT 5SM -RA BR BKN012 OVC022 WS015/16045KT
     FM251400 16015G22KT 4SM -RA BR BKN012 OVC022 WS015/16045KT
     FM251600 20015G22KT P6SM BKN012
     FM252000 22016G24KT P6SM SCT070 BKN150
     FM260000 22010KT P6SM SCT150 BKN250=



000
FTUS43 KDTX 250531
TAFFNT
TAF
KFNT 250531Z 2506/2606 12007KT P6SM BKN090 OVC200
     FM251000 12012KT P6SM -FZRA SCT030 OVC060
     FM251200 13014G20KT 5SM -RA BR BKN012 OVC022 WS015/16045KT
     FM251400 16015G22KT 4SM -RA BR BKN012 OVC022 WS015/16045KT
     FM251600 20015G22KT P6SM BKN012
     FM252000 22016G24KT P6SM SCT070 BKN150
     FM260000 22010KT P6SM SCT150 BKN250=



000
FTUS43 KDTX 250531
TAFDTW
TAF
KDTW 250531Z 2506/2612 09006KT P6SM BKN070 OVC150
     FM250900 11009KT P6SM -FZRA SCT030 OVC060
     FM251000 12012G18KT 5SM -RA BR SCT018 OVC035 WS015/16045KT
     FM251300 16016G22KT 4SM -RA BR BKN012 OVC022 WS015/16045KT
     FM251500 23017G24KT P6SM BKN012 OVC025
     FM252000 24018G26KT P6SM SCT070 BKN150
     FM260000 22010KT P6SM SCT150 BKN250=



000
FTUS43 KDTX 250307 AAA
TAFDTW
TAF AMD
KDTW 250307Z 2503/2606 09006KT P6SM BKN200
     FM250700 11006KT P6SM BKN070 OVC150
     FM250900 12006KT P6SM -FZRA SCT030 OVC060
     FM251000 13012G18KT 5SM -RA BR SCT018 OVC035 WS015/16045KT
     FM251300 16016G22KT 4SM -RA BR BKN012 OVC022 WS015/16045KT
     FM251500 23017G24KT P6SM BKN012 OVC025
     FM252000 24018G26KT P6SM SCT070 BKN150
     FM260000 22010KT P6SM SCT150 BKN250=



000
FTUS43 KDTX 242320
TAFDET
TAF
KDET 242320Z 2500/2524 11006KT P6SM SCT250
     FM250700 11006KT P6SM BKN070 OVC150
     FM250900 12006KT P6SM -FZRA SCT030 OVC060
     FM251000 13012G18KT 5SM -RA BR SCT018 OVC035 WS015/16045KT
     FM251300 16016G22KT 4SM -RA BR BKN012 OVC022 WS015/16045KT
     FM251500 23017G24KT P6SM BKN012 OVC025
     FM252000 24018G26KT P6SM SCT070 BKN150=



000
FTUS43 KDTX 242320
TAFMBS
TAF
KMBS 242320Z 2500/2524 09006KT P6SM SCT250
     FM250900 12010KT P6SM BKN070 OVC150
     FM251000 12012KT P6SM -FZRA SCT030 OVC060
     FM251200 12014G20KT 5SM -RA BR BKN012 OVC022 WS015/16045KT
     FM251400 16015G22KT 4SM -RA BR BKN012 OVC022 WS015/16045KT
     FM251600 20015G22KT P6SM BKN012
     FM252000 22016G24KT P6SM SCT070 BKN150=



000
FTUS43 KDTX 242320
TAFFNT
TAF
KFNT 242320Z 2500/2524 13006KT P6SM SCT250
     FM250900 12010KT P6SM BKN070 OVC150
     FM251000 12012KT P6SM -FZRA SCT030 OVC060
     FM251200 13014G20KT 5SM -RA BR BKN012 OVC022 WS015/16045KT
     FM251400 16015G22KT 4SM -RA BR BKN012 OVC022 WS015/16045KT
     FM251600 20015G22KT P6SM BKN012
     FM252000 22016G24KT P6SM SCT070 BKN150=



000
FTUS43 KDTX 242320
TAFDTW
TAF
KDTW 242320Z 2500/2606 10006KT P6SM SCT250
     FM250700 11006KT P6SM BKN070 OVC150
     FM250900 12006KT P6SM -FZRA SCT030 OVC060
     FM251000 13012G18KT 5SM -RA BR SCT018 OVC035 WS015/16045KT
     FM251300 16016G22KT 4SM -RA BR BKN012 OVC022 WS015/16045KT
     FM251500 23017G24KT P6SM BKN012 OVC025
     FM252000 24018G26KT P6SM SCT070 BKN150
     FM260000 22010KT P6SM SCT150 BKN250=



000
FTUS43 KDTX 242320
TAFDET
TAF
KDET 242320Z 2500/2524 11006KT P6SM SCT250
     FM250700 11006KT P6SM BKN070 OVC150
     FM250900 12006KT P6SM -FZRA SCT030 OVC060
     FM251000 13012G18KT 5SM -RA BR SCT018 OVC035 WS015/16045KT
     FM251300 16016G22KT 4SM -RA BR BKN012 OVC022 WS015/16045KT
     FM251500 23017G24KT P6SM BKN012 OVC025
     FM252000 24018G26KT P6SM SCT070 BKN150=



000
FTUS43 KDTX 242320
TAFFNT
TAF
KFNT 242320Z 2500/2524 13006KT P6SM SCT250
     FM250900 12010KT P6SM BKN070 OVC150
     FM251000 12012KT P6SM -FZRA SCT030 OVC060
     FM251200 13014G20KT 5SM -RA BR BKN012 OVC022 WS015/16045KT
     FM251400 16015G22KT 4SM -RA BR BKN012 OVC022 WS015/16045KT
     FM251600 20015G22KT P6SM BKN012
     FM252000 22016G24KT P6SM SCT070 BKN150=



000
FTUS43 KDTX 242320
TAFMBS
TAF
KMBS 242320Z 2500/2524 09006KT P6SM SCT250
     FM250900 12010KT P6SM BKN070 OVC150
     FM251000 12012KT P6SM -FZRA SCT030 OVC060
     FM251200 12014G20KT 5SM -RA BR BKN012 OVC022 WS015/16045KT
     FM251400 16015G22KT 4SM -RA BR BKN012 OVC022 WS015/16045KT
     FM251600 20015G22KT P6SM BKN012
     FM252000 22016G24KT P6SM SCT070 BKN150=



000
FTUS43 KDTX 242320
TAFDTW
TAF
KDTW 242320Z 2500/2606 10006KT P6SM SCT250
     FM250700 11006KT P6SM BKN070 OVC150
     FM250900 12006KT P6SM -FZRA SCT030 OVC060
     FM251000 13012G18KT 5SM -RA BR SCT018 OVC035 WS015/16045KT
     FM251300 16016G22KT 4SM -RA BR BKN012 OVC022 WS015/16045KT
     FM251500 23017G24KT P6SM BKN012 OVC025
     FM252000 24018G26KT P6SM SCT070 BKN150
     FM260000 22010KT P6SM SCT150 BKN250=



000
FTUS43 KDTX 242105 AAA
TAFDTW
TAF AMD
KDTW 242105Z 2421/2524 09006KT P6SM SCT250
     FM250800 09006KT P6SM OVC050
     FM250900 10006KT P6SM -FZRA SCT025 OVC040
     FM251000 12013G20KT 4SM -RA BR BKN012 OVC022 WS015/16045KT
     FM251300 16016G22KT 4SM -RA BR BKN012 OVC022 WS015/16045KT
     FM251500 21016G24KT P6SM BKN012
     FM251700 24018G25KT P6SM BKN025 OVC045=



    US Dept of Commerce
    National Oceanic and Atmospheric Administration
    National Weather Service
    1325 East West Highway
    Silver Spring, MD 20910
    Page Author: NWS Internet Services Team
Disclaimer
Information Quality
Credits
Glossary
Privacy Policy
Freedom of Information Act (FOIA)
About Us
Career Opportunities